sensor_id;sensor_type;location;lat;lon;timestamp;P1;durP1;ratioP1;P2;durP2;ratioP2
77864;SDS011;67061;48.524;9.040;2024-02-15T00:02:10;6.00;;;3.28;;
77864;SDS011;67061;48.524;9.040;2024-02-15T00:04:37;5.20;;;3.00;;
77864;SDS011;67061;48.524;9.040;2024-02-15T00:07:05;5.15;;;3.03;;
77864;SDS011;67061;48.524;9.040;2024-02-15T00:09:31;5.15;;;2.95;;
77864;SDS011;67061;48.524;9.040;2024-02-15T00:11:58;4.35;;;2.72;;
77864;SDS011;67061;48.524;9.040;2024-02-15T00:14:25;5.75;;;3.15;;
77864;SDS011;67061;48.524;9.040;2024-02-15T00:16:53;5.38;;;3.35;;
77864;SDS011;67061;48.524;9.040;2024-02-15T00:19:21;6.47;;;3.80;;
77864;SDS011;67061;48.524;9.040;2024-02-15T00:21:48;5.82;;;3.47;;
77864;SDS011;67061;48.524;9.040;2024-02-15T00:24:15;5.18;;;3.70;;
77864;SDS011;67061;48.524;9.040;2024-02-15T00:26:41;5.43;;;3.17;;
77864;SDS011;67061;48.524;9.040;2024-02-15T00:29:09;5.28;;;3.35;;
77864;SDS011;67061;48.524;9.040;2024-02-15T00:31:36;5.97;;;3.33;;
77864;SDS011;67061;48.524;9.040;2024-02-15T00:34:03;5.28;;;3.42;;
77864;SDS011;67061;48.524;9.040;2024-02-15T00:36:32;4.72;;;3.22;;
77864;SDS011;67061;48.524;9.040;2024-02-15T00:38:59;4.75;;;3.00;;
77864;SDS011;67061;48.524;9.040;2024-02-15T00:41:26;4.63;;;3.08;;
77864;SDS011;67061;48.524;9.040;2024-02-15T00:43:53;5.57;;;3.45;;
77864;SDS011;67061;48.524;9.040;2024-02-15T00:46:20;4.22;;;2.63;;
77864;SDS011;67061;48.524;9.040;2024-02-15T00:48:47;4.85;;;3.28;;
77864;SDS011;67061;48.524;9.040;2024-02-15T00:51:14;6.32;;;3.58;;
77864;SDS011;67061;48.524;9.040;2024-02-15T00:53:43;5.85;;;3.45;;
77864;SDS011;67061;48.524;9.040;2024-02-15T00:56:10;5.38;;;3.72;;
77864;SDS011;67061;48.524;9.040;2024-02-15T00:58:38;7.03;;;4.65;;
77864;SDS011;67061;48.524;9.040;2024-02-15T01:01:05;5.97;;;3.67;;
77864;SDS011;67061;48.524;9.040;2024-02-15T01:03:32;5.50;;;3.38;;
77864;SDS011;67061;48.524;9.040;2024-02-15T01:06:00;5.07;;;2.65;;
77864;SDS011;67061;48.524;9.040;2024-02-15T01:08:27;5.45;;;3.65;;
77864;SDS011;67061;48.524;9.040;2024-02-15T01:10:56;5.40;;;3.40;;
77864;SDS011;67061;48.524;9.040;2024-02-15T01:13:23;5.97;;;3.35;;
77864;SDS011;67061;48.524;9.040;2024-02-15T01:15:50;6.05;;;3.60;;
77864;SDS011;67061;48.524;9.040;2024-02-15T01:18:17;5.82;;;3.58;;
77864;SDS011;67061;48.524;9.040;2024-02-15T01:20:44;6.18;;;3.42;;
77864;SDS011;67061;48.524;9.040;2024-02-15T01:23:11;5.85;;;4.18;;
77864;SDS011;67061;48.524;9.040;2024-02-15T01:25:39;5.03;;;3.28;;
77864;SDS011;67061;48.524;9.040;2024-02-15T01:28:07;5.07;;;3.45;;
77864;SDS011;67061;48.524;9.040;2024-02-15T01:30:34;5.35;;;3.72;;
77864;SDS011;67061;48.524;9.040;2024-02-15T01:33:01;6.35;;;3.58;;
77864;SDS011;67061;48.524;9.040;2024-02-15T01:35:28;5.82;;;3.45;;
77864;SDS011;67061;48.524;9.040;2024-02-15T01:37:55;5.50;;;3.70;;
77864;SDS011;67061;48.524;9.040;2024-02-15T01:40:22;6.78;;;4.05;;
77864;SDS011;67061;48.524;9.040;2024-02-15T01:42:48;7.18;;;3.83;;
77864;SDS011;67061;48.524;9.040;2024-02-15T01:45:17;7.30;;;3.47;;
77864;SDS011;67061;48.524;9.040;2024-02-15T01:47:44;8.10;;;3.67;;
77864;SDS011;67061;48.524;9.040;2024-02-15T01:50:11;5.32;;;3.25;;
77864;SDS011;67061;48.524;9.040;2024-02-15T01:52:39;6.40;;;3.10;;
77864;SDS011;67061;48.524;9.040;2024-02-15T01:55:08;4.68;;;3.00;;
77864;SDS011;67061;48.524;9.040;2024-02-15T01:57:36;5.80;;;3.75;;
77864;SDS011;67061;48.524;9.040;2024-02-15T02:00:04;5.72;;;3.10;;
77864;SDS011;67061;48.524;9.040;2024-02-15T02:02:35;7.13;;;3.67;;
77864;SDS011;67061;48.524;9.040;2024-02-15T02:05:05;6.28;;;3.28;;
77864;SDS011;67061;48.524;9.040;2024-02-15T02:07:33;5.93;;;2.60;;
77864;SDS011;67061;48.524;9.040;2024-02-15T02:10:00;5.28;;;2.83;;
77864;SDS011;67061;48.524;9.040;2024-02-15T02:12:28;4.55;;;2.45;;
77864;SDS011;67061;48.524;9.040;2024-02-15T02:14:55;4.88;;;2.60;;
77864;SDS011;67061;48.524;9.040;2024-02-15T02:17:22;4.05;;;2.35;;
77864;SDS011;67061;48.524;9.040;2024-02-15T02:19:51;3.90;;;2.22;;
77864;SDS011;67061;48.524;9.040;2024-02-15T02:22:18;5.25;;;2.35;;
77864;SDS011;67061;48.524;9.040;2024-02-15T02:24:58;4.35;;;2.05;;
77864;SDS011;67061;48.524;9.040;2024-02-15T02:27:28;5.82;;;2.47;;
77864;SDS011;67061;48.524;9.040;2024-02-15T02:29:56;5.25;;;2.45;;
77864;SDS011;67061;48.524;9.040;2024-02-15T02:32:24;5.05;;;1.98;;
77864;SDS011;67061;48.524;9.040;2024-02-15T02:34:51;3.20;;;1.98;;
77864;SDS011;67061;48.524;9.040;2024-02-15T02:37:22;3.63;;;1.90;;
77864;SDS011;67061;48.524;9.040;2024-02-15T02:39:49;3.67;;;1.65;;
77864;SDS011;67061;48.524;9.040;2024-02-15T02:42:17;5.60;;;2.22;;
77864;SDS011;67061;48.524;9.040;2024-02-15T02:44:46;6.25;;;2.00;;
77864;SDS011;67061;48.524;9.040;2024-02-15T02:47:13;4.43;;;2.10;;
77864;SDS011;67061;48.524;9.040;2024-02-15T02:49:39;3.70;;;2.50;;
77864;SDS011;67061;48.524;9.040;2024-02-15T02:52:07;4.22;;;2.28;;
77864;SDS011;67061;48.524;9.040;2024-02-15T02:54:34;4.50;;;2.00;;
77864;SDS011;67061;48.524;9.040;2024-02-15T02:57:01;4.65;;;2.20;;
77864;SDS011;67061;48.524;9.040;2024-02-15T02:59:34;3.88;;;2.00;;
77864;SDS011;67061;48.524;9.040;2024-02-15T03:02:03;4.65;;;2.00;;
77864;SDS011;67061;48.524;9.040;2024-02-15T03:04:31;3.67;;;2.05;;
77864;SDS011;67061;48.524;9.040;2024-02-15T03:06:59;4.40;;;2.20;;
77864;SDS011;67061;48.524;9.040;2024-02-15T03:09:25;3.92;;;2.00;;
77864;SDS011;67061;48.524;9.040;2024-02-15T03:11:54;5.65;;;2.13;;
77864;SDS011;67061;48.524;9.040;2024-02-15T03:14:22;3.38;;;1.95;;
77864;SDS011;67061;48.524;9.040;2024-02-15T03:16:51;5.22;;;2.67;;
77864;SDS011;67061;48.524;9.040;2024-02-15T03:19:20;4.20;;;2.05;;
77864;SDS011;67061;48.524;9.040;2024-02-15T03:21:48;5.65;;;2.50;;
77864;SDS011;67061;48.524;9.040;2024-02-15T03:24:15;8.73;;;3.03;;
77864;SDS011;67061;48.524;9.040;2024-02-15T03:26:42;6.30;;;2.17;;
77864;SDS011;67061;48.524;9.040;2024-02-15T03:29:09;4.10;;;2.28;;
77864;SDS011;67061;48.524;9.040;2024-02-15T03:31:36;4.72;;;2.40;;
77864;SDS011;67061;48.524;9.040;2024-02-15T03:34:05;6.25;;;2.20;;
77864;SDS011;67061;48.524;9.040;2024-02-15T03:36:32;4.32;;;2.05;;
77864;SDS011;67061;48.524;9.040;2024-02-15T03:38:59;3.65;;;2.13;;
77864;SDS011;67061;48.524;9.040;2024-02-15T03:41:27;4.45;;;2.40;;
77864;SDS011;67061;48.524;9.040;2024-02-15T03:43:57;5.35;;;2.05;;
77864;SDS011;67061;48.524;9.040;2024-02-15T03:46:25;3.80;;;2.38;;
77864;SDS011;67061;48.524;9.040;2024-02-15T03:48:52;5.05;;;2.45;;
77864;SDS011;67061;48.524;9.040;2024-02-15T03:51:22;7.50;;;2.63;;
77864;SDS011;67061;48.524;9.040;2024-02-15T03:53:49;4.28;;;2.28;;
77864;SDS011;67061;48.524;9.040;2024-02-15T03:56:17;5.00;;;2.38;;
77864;SDS011;67061;48.524;9.040;2024-02-15T03:58:46;4.97;;;2.47;;
77864;SDS011;67061;48.524;9.040;2024-02-15T04:01:13;4.75;;;2.35;;
77864;SDS011;67061;48.524;9.040;2024-02-15T04:03:40;4.75;;;2.47;;
77864;SDS011;67061;48.524;9.040;2024-02-15T04:06:07;5.32;;;2.88;;
77864;SDS011;67061;48.524;9.040;2024-02-15T04:08:37;4.25;;;2.58;;
77864;SDS011;67061;48.524;9.040;2024-02-15T04:11:04;3.90;;;2.58;;
77864;SDS011;67061;48.524;9.040;2024-02-15T04:13:32;5.78;;;2.85;;
77864;SDS011;67061;48.524;9.040;2024-02-15T04:16:00;5.13;;;2.35;;
77864;SDS011;67061;48.524;9.040;2024-02-15T04:18:27;4.95;;;2.53;;
77864;SDS011;67061;48.524;9.040;2024-02-15T04:20:57;5.00;;;3.00;;
77864;SDS011;67061;48.524;9.040;2024-02-15T04:23:24;4.68;;;2.97;;
77864;SDS011;67061;48.524;9.040;2024-02-15T04:25:52;6.28;;;2.60;;
77864;SDS011;67061;48.524;9.040;2024-02-15T04:28:19;6.35;;;2.88;;
77864;SDS011;67061;48.524;9.040;2024-02-15T04:30:46;3.80;;;2.13;;
77864;SDS011;67061;48.524;9.040;2024-02-15T04:33:14;5.03;;;2.45;;
77864;SDS011;67061;48.524;9.040;2024-02-15T04:35:41;7.53;;;3.42;;
77864;SDS011;67061;48.524;9.040;2024-02-15T04:38:09;4.57;;;2.38;;
77864;SDS011;67061;48.524;9.040;2024-02-15T04:40:36;6.47;;;3.72;;
77864;SDS011;67061;48.524;9.040;2024-02-15T04:43:06;6.78;;;4.18;;
77864;SDS011;67061;48.524;9.040;2024-02-15T04:45:34;6.10;;;4.13;;
77864;SDS011;67061;48.524;9.040;2024-02-15T04:48:01;5.32;;;3.65;;
77864;SDS011;67061;48.524;9.040;2024-02-15T04:50:29;7.28;;;3.40;;
77864;SDS011;67061;48.524;9.040;2024-02-15T04:52:55;5.80;;;3.25;;
77864;SDS011;67061;48.524;9.040;2024-02-15T04:55:22;6.15;;;3.22;;
77864;SDS011;67061;48.524;9.040;2024-02-15T04:57:51;6.20;;;3.40;;
77864;SDS011;67061;48.524;9.040;2024-02-15T05:00:22;5.78;;;3.67;;
77864;SDS011;67061;48.524;9.040;2024-02-15T05:02:51;6.10;;;3.20;;
77864;SDS011;67061;48.524;9.040;2024-02-15T05:05:18;5.18;;;3.33;;
77864;SDS011;67061;48.524;9.040;2024-02-15T05:07:47;5.35;;;3.33;;
77864;SDS011;67061;48.524;9.040;2024-02-15T05:10:15;4.90;;;3.17;;
77864;SDS011;67061;48.524;9.040;2024-02-15T05:12:42;5.85;;;3.47;;
77864;SDS011;67061;48.524;9.040;2024-02-15T05:15:09;5.60;;;3.40;;
77864;SDS011;67061;48.524;9.040;2024-02-15T05:17:38;6.93;;;3.75;;
77864;SDS011;67061;48.524;9.040;2024-02-15T05:20:07;6.07;;;3.60;;
77864;SDS011;67061;48.524;9.040;2024-02-15T05:22:37;5.70;;;3.53;;
77864;SDS011;67061;48.524;9.040;2024-02-15T05:25:05;5.45;;;3.55;;
77864;SDS011;67061;48.524;9.040;2024-02-15T05:27:33;6.90;;;3.70;;
77864;SDS011;67061;48.524;9.040;2024-02-15T05:30:01;7.15;;;3.67;;
77864;SDS011;67061;48.524;9.040;2024-02-15T05:32:32;6.30;;;3.88;;
77864;SDS011;67061;48.524;9.040;2024-02-15T05:35:09;6.88;;;3.90;;
77864;SDS011;67061;48.524;9.040;2024-02-15T05:37:36;8.10;;;4.53;;
77864;SDS011;67061;48.524;9.040;2024-02-15T05:40:04;8.18;;;4.80;;
77864;SDS011;67061;48.524;9.040;2024-02-15T05:42:32;11.57;;;4.65;;
77864;SDS011;67061;48.524;9.040;2024-02-15T05:45:14;7.93;;;4.60;;
77864;SDS011;67061;48.524;9.040;2024-02-15T05:47:57;11.30;;;5.20;;
77864;SDS011;67061;48.524;9.040;2024-02-15T05:50:26;10.40;;;4.78;;
77864;SDS011;67061;48.524;9.040;2024-02-15T05:52:55;8.40;;;4.45;;
77864;SDS011;67061;48.524;9.040;2024-02-15T05:55:24;7.07;;;4.07;;
77864;SDS011;67061;48.524;9.040;2024-02-15T05:57:52;7.82;;;4.13;;
77864;SDS011;67061;48.524;9.040;2024-02-15T06:00:19;7.93;;;3.53;;
77864;SDS011;67061;48.524;9.040;2024-02-15T06:02:47;6.90;;;3.88;;
77864;SDS011;67061;48.524;9.040;2024-02-15T06:05:14;6.40;;;3.70;;
77864;SDS011;67061;48.524;9.040;2024-02-15T06:07:43;6.97;;;3.80;;
77864;SDS011;67061;48.524;9.040;2024-02-15T06:10:11;6.05;;;3.55;;
77864;SDS011;67061;48.524;9.040;2024-02-15T06:12:38;6.35;;;3.75;;
77864;SDS011;67061;48.524;9.040;2024-02-15T06:15:05;9.82;;;4.03;;
77864;SDS011;67061;48.524;9.040;2024-02-15T06:17:39;7.38;;;3.50;;
77864;SDS011;67061;48.524;9.040;2024-02-15T06:20:09;6.32;;;3.53;;
77864;SDS011;67061;48.524;9.040;2024-02-15T06:22:39;6.10;;;3.38;;
77864;SDS011;67061;48.524;9.040;2024-02-15T06:25:08;5.68;;;3.00;;
77864;SDS011;67061;48.524;9.040;2024-02-15T06:27:35;6.82;;;3.33;;
77864;SDS011;67061;48.524;9.040;2024-02-15T06:30:05;6.80;;;3.13;;
77864;SDS011;67061;48.524;9.040;2024-02-15T06:32:51;7.35;;;4.15;;
77864;SDS011;67061;48.524;9.040;2024-02-15T06:35:35;8.55;;;3.67;;
77864;SDS011;67061;48.524;9.040;2024-02-15T06:38:20;7.40;;;3.42;;
77864;SDS011;67061;48.524;9.040;2024-02-15T06:41:06;5.75;;;3.17;;
77864;SDS011;67061;48.524;9.040;2024-02-15T06:43:33;5.00;;;3.15;;
77864;SDS011;67061;48.524;9.040;2024-02-15T06:46:00;5.63;;;3.38;;
77864;SDS011;67061;48.524;9.040;2024-02-15T06:48:28;6.72;;;3.35;;
77864;SDS011;67061;48.524;9.040;2024-02-15T06:50:56;6.85;;;3.55;;
77864;SDS011;67061;48.524;9.040;2024-02-15T06:53:23;8.45;;;4.78;;
77864;SDS011;67061;48.524;9.040;2024-02-15T06:55:51;9.13;;;5.70;;
77864;SDS011;67061;48.524;9.040;2024-02-15T06:58:19;6.47;;;4.25;;
77864;SDS011;67061;48.524;9.040;2024-02-15T07:00:47;10.75;;;5.60;;
77864;SDS011;67061;48.524;9.040;2024-02-15T07:03:15;8.35;;;5.43;;
77864;SDS011;67061;48.524;9.040;2024-02-15T07:05:43;9.55;;;5.90;;
77864;SDS011;67061;48.524;9.040;2024-02-15T07:08:10;12.52;;;5.70;;
77864;SDS011;67061;48.524;9.040;2024-02-15T07:10:38;11.50;;;5.63;;
77864;SDS011;67061;48.524;9.040;2024-02-15T07:13:05;9.30;;;5.70;;
77864;SDS011;67061;48.524;9.040;2024-02-15T07:15:34;10.00;;;5.45;;
77864;SDS011;67061;48.524;9.040;2024-02-15T07:18:03;10.27;;;5.78;;
77864;SDS011;67061;48.524;9.040;2024-02-15T07:20:31;11.25;;;6.75;;
77864;SDS011;67061;48.524;9.040;2024-02-15T07:22:58;18.25;;;9.52;;
77864;SDS011;67061;48.524;9.040;2024-02-15T07:25:25;13.32;;;7.30;;
77864;SDS011;67061;48.524;9.040;2024-02-15T07:27:52;9.90;;;6.57;;
77864;SDS011;67061;48.524;9.040;2024-02-15T07:30:19;10.02;;;5.43;;
77864;SDS011;67061;48.524;9.040;2024-02-15T07:32:49;8.25;;;5.25;;
77864;SDS011;67061;48.524;9.040;2024-02-15T07:35:16;9.80;;;6.68;;
77864;SDS011;67061;48.524;9.040;2024-02-15T07:37:50;9.18;;;5.63;;
77864;SDS011;67061;48.524;9.040;2024-02-15T07:40:18;9.02;;;6.47;;
77864;SDS011;67061;48.524;9.040;2024-02-15T07:42:47;9.95;;;6.53;;
77864;SDS011;67061;48.524;9.040;2024-02-15T07:45:14;11.35;;;7.75;;
77864;SDS011;67061;48.524;9.040;2024-02-15T07:47:43;9.48;;;7.40;;
77864;SDS011;67061;48.524;9.040;2024-02-15T07:50:11;8.77;;;6.85;;
77864;SDS011;67061;48.524;9.040;2024-02-15T07:52:44;13.27;;;7.03;;
77864;SDS011;67061;48.524;9.040;2024-02-15T07:55:11;9.65;;;6.20;;
77864;SDS011;67061;48.524;9.040;2024-02-15T07:57:38;8.00;;;6.00;;
77864;SDS011;67061;48.524;9.040;2024-02-15T08:00:06;10.32;;;7.13;;
77864;SDS011;67061;48.524;9.040;2024-02-15T08:02:36;10.35;;;6.32;;
77864;SDS011;67061;48.524;9.040;2024-02-15T08:05:06;10.07;;;6.20;;
77864;SDS011;67061;48.524;9.040;2024-02-15T08:07:37;8.70;;;5.50;;
77864;SDS011;67061;48.524;9.040;2024-02-15T08:10:07;9.98;;;6.53;;
77864;SDS011;67061;48.524;9.040;2024-02-15T08:12:38;10.48;;;5.90;;
77864;SDS011;67061;48.524;9.040;2024-02-15T08:15:07;7.88;;;4.97;;
77864;SDS011;67061;48.524;9.040;2024-02-15T08:17:38;7.93;;;4.35;;
77864;SDS011;67061;48.524;9.040;2024-02-15T08:20:07;7.72;;;4.55;;
77864;SDS011;67061;48.524;9.040;2024-02-15T08:22:35;11.30;;;4.28;;
77864;SDS011;67061;48.524;9.040;2024-02-15T08:25:06;6.05;;;3.63;;
77864;SDS011;67061;48.524;9.040;2024-02-15T08:27:36;5.25;;;3.22;;
77864;SDS011;67061;48.524;9.040;2024-02-15T08:30:07;6.03;;;3.63;;
77864;SDS011;67061;48.524;9.040;2024-02-15T08:32:35;5.70;;;3.35;;
77864;SDS011;67061;48.524;9.040;2024-02-15T08:35:03;6.70;;;3.40;;
77864;SDS011;67061;48.524;9.040;2024-02-15T08:37:31;6.43;;;3.42;;
77864;SDS011;67061;48.524;9.040;2024-02-15T08:39:59;5.95;;;3.85;;
77864;SDS011;67061;48.524;9.040;2024-02-15T08:42:27;6.95;;;3.15;;
77864;SDS011;67061;48.524;9.040;2024-02-15T08:44:54;6.00;;;3.80;;
77864;SDS011;67061;48.524;9.040;2024-02-15T08:47:21;8.98;;;5.90;;
77864;SDS011;67061;48.524;9.040;2024-02-15T08:49:48;7.93;;;4.47;;
77864;SDS011;67061;48.524;9.040;2024-02-15T08:52:15;9.98;;;5.40;;
77864;SDS011;67061;48.524;9.040;2024-02-15T08:54:43;8.65;;;5.60;;
77864;SDS011;67061;48.524;9.040;2024-02-15T08:57:10;6.85;;;3.80;;
77864;SDS011;67061;48.524;9.040;2024-02-15T08:59:40;8.15;;;4.60;;
77864;SDS011;67061;48.524;9.040;2024-02-15T09:02:07;6.82;;;4.13;;
77864;SDS011;67061;48.524;9.040;2024-02-15T09:04:35;6.25;;;4.53;;
77864;SDS011;67061;48.524;9.040;2024-02-15T09:07:02;6.45;;;4.22;;
77864;SDS011;67061;48.524;9.040;2024-02-15T09:09:29;8.10;;;4.78;;
77864;SDS011;67061;48.524;9.040;2024-02-15T09:12:00;10.43;;;4.60;;
77864;SDS011;67061;48.524;9.040;2024-02-15T09:14:30;6.60;;;4.43;;
77864;SDS011;67061;48.524;9.040;2024-02-15T09:17:00;8.63;;;4.70;;
77864;SDS011;67061;48.524;9.040;2024-02-15T09:19:32;7.35;;;4.57;;
77864;SDS011;67061;48.524;9.040;2024-02-15T09:21:59;6.53;;;4.30;;
77864;SDS011;67061;48.524;9.040;2024-02-15T09:24:27;5.28;;;3.78;;
77864;SDS011;67061;48.524;9.040;2024-02-15T09:26:54;6.50;;;3.55;;
77864;SDS011;67061;48.524;9.040;2024-02-15T09:29:21;6.90;;;4.20;;
77864;SDS011;67061;48.524;9.040;2024-02-15T09:31:49;7.82;;;3.97;;
77864;SDS011;67061;48.524;9.040;2024-02-15T09:34:19;6.40;;;3.78;;
77864;SDS011;67061;48.524;9.040;2024-02-15T09:36:46;5.70;;;3.25;;
77864;SDS011;67061;48.524;9.040;2024-02-15T09:39:13;5.60;;;2.53;;
77864;SDS011;67061;48.524;9.040;2024-02-15T09:41:40;4.03;;;2.42;;
77864;SDS011;67061;48.524;9.040;2024-02-15T09:44:08;7.70;;;2.78;;
77864;SDS011;67061;48.524;9.040;2024-02-15T09:46:41;6.30;;;3.13;;
77864;SDS011;67061;48.524;9.040;2024-02-15T09:49:11;5.13;;;2.40;;
77864;SDS011;67061;48.524;9.040;2024-02-15T09:51:41;5.15;;;3.00;;
77864;SDS011;67061;48.524;9.040;2024-02-15T09:54:09;5.65;;;3.17;;
77864;SDS011;67061;48.524;9.040;2024-02-15T09:59:06;4.63;;;2.83;;
77864;SDS011;67061;48.524;9.040;2024-02-15T10:01:33;6.28;;;3.47;;
77864;SDS011;67061;48.524;9.040;2024-02-15T10:04:03;5.03;;;3.13;;
77864;SDS011;67061;48.524;9.040;2024-02-15T10:06:32;6.38;;;3.10;;
77864;SDS011;67061;48.524;9.040;2024-02-15T10:11:55;6.35;;;2.95;;
77864;SDS011;67061;48.524;9.040;2024-02-15T10:14:24;6.38;;;3.28;;
77864;SDS011;67061;48.524;9.040;2024-02-15T10:16:54;4.90;;;2.65;;
77864;SDS011;67061;48.524;9.040;2024-02-15T10:19:21;5.82;;;3.42;;
77864;SDS011;67061;48.524;9.040;2024-02-15T10:21:51;5.32;;;3.10;;
77864;SDS011;67061;48.524;9.040;2024-02-15T10:24:20;4.88;;;2.90;;
77864;SDS011;67061;48.524;9.040;2024-02-15T10:26:50;5.95;;;2.20;;
77864;SDS011;67061;48.524;9.040;2024-02-15T10:29:19;5.90;;;2.90;;
77864;SDS011;67061;48.524;9.040;2024-02-15T10:31:53;4.10;;;2.40;;
77864;SDS011;67061;48.524;9.040;2024-02-15T10:34:21;4.80;;;2.60;;
77864;SDS011;67061;48.524;9.040;2024-02-15T10:36:51;5.55;;;2.10;;
77864;SDS011;67061;48.524;9.040;2024-02-15T10:39:18;5.28;;;2.20;;
77864;SDS011;67061;48.524;9.040;2024-02-15T10:41:46;4.45;;;2.33;;
77864;SDS011;67061;48.524;9.040;2024-02-15T10:44:16;4.90;;;2.15;;
77864;SDS011;67061;48.524;9.040;2024-02-15T10:46:45;4.65;;;2.10;;
77864;SDS011;67061;48.524;9.040;2024-02-15T10:49:16;4.43;;;2.13;;
77864;SDS011;67061;48.524;9.040;2024-02-15T10:51:48;4.43;;;2.00;;
77864;SDS011;67061;48.524;9.040;2024-02-15T10:54:20;3.38;;;1.85;;
77864;SDS011;67061;48.524;9.040;2024-02-15T10:57:03;4.05;;;2.42;;
77864;SDS011;67061;48.524;9.040;2024-02-15T10:59:34;4.65;;;2.25;;
77864;SDS011;67061;48.524;9.040;2024-02-15T11:02:04;7.47;;;3.67;;
77864;SDS011;67061;48.524;9.040;2024-02-15T11:04:45;2.72;;;1.38;;
77864;SDS011;67061;48.524;9.040;2024-02-15T11:07:19;4.20;;;2.00;;
77864;SDS011;67061;48.524;9.040;2024-02-15T11:09:47;7.68;;;2.25;;
77864;SDS011;67061;48.524;9.040;2024-02-15T11:12:14;4.80;;;2.10;;
77864;SDS011;67061;48.524;9.040;2024-02-15T11:14:43;4.10;;;1.45;;
77864;SDS011;67061;48.524;9.040;2024-02-15T11:17:11;3.25;;;1.52;;
77864;SDS011;67061;48.524;9.040;2024-02-15T11:19:57;3.55;;;1.48;;
77864;SDS011;67061;48.524;9.040;2024-02-15T11:22:24;3.72;;;1.58;;
77864;SDS011;67061;48.524;9.040;2024-02-15T11:24:52;3.47;;;1.48;;
77864;SDS011;67061;48.524;9.040;2024-02-15T11:27:25;4.53;;;1.63;;
77864;SDS011;67061;48.524;9.040;2024-02-15T11:29:55;4.13;;;1.50;;
77864;SDS011;67061;48.524;9.040;2024-02-15T11:32:34;3.30;;;1.52;;
77864;SDS011;67061;48.524;9.040;2024-02-15T11:35:06;4.35;;;1.58;;
77864;SDS011;67061;48.524;9.040;2024-02-15T11:37:57;3.28;;;0.98;;
77864;SDS011;67061;48.524;9.040;2024-02-15T11:40:28;4.40;;;1.90;;
77864;SDS011;67061;48.524;9.040;2024-02-15T11:46:16;3.70;;;0.98;;
77864;SDS011;67061;48.524;9.040;2024-02-15T11:48:44;3.22;;;0.82;;
77864;SDS011;67061;48.524;9.040;2024-02-15T11:51:24;3.75;;;0.63;;
77864;SDS011;67061;48.524;9.040;2024-02-15T11:53:58;2.22;;;0.50;;
77864;SDS011;67061;48.524;9.040;2024-02-15T11:56:33;2.30;;;0.60;;
77864;SDS011;67061;48.524;9.040;2024-02-15T11:59:30;2.03;;;0.80;;
77864;SDS011;67061;48.524;9.040;2024-02-15T12:02:09;3.00;;;0.65;;
77864;SDS011;67061;48.524;9.040;2024-02-15T12:04:53;2.13;;;0.65;;
77864;SDS011;67061;48.524;9.040;2024-02-15T12:07:38;3.20;;;0.73;;
77864;SDS011;67061;48.524;9.040;2024-02-15T12:10:22;2.10;;;0.77;;
77864;SDS011;67061;48.524;9.040;2024-02-15T12:13:07;2.78;;;0.90;;
77864;SDS011;67061;48.524;9.040;2024-02-15T12:15:57;2.50;;;0.73;;
77864;SDS011;67061;48.524;9.040;2024-02-15T12:18:44;2.47;;;1.00;;
77864;SDS011;67061;48.524;9.040;2024-02-15T12:21:13;2.47;;;0.70;;
77864;SDS011;67061;48.524;9.040;2024-02-15T12:23:42;3.92;;;1.00;;
77864;SDS011;67061;48.524;9.040;2024-02-15T12:26:10;2.47;;;1.00;;
77864;SDS011;67061;48.524;9.040;2024-02-15T12:28:39;3.63;;;1.60;;
77864;SDS011;67061;48.524;9.040;2024-02-15T12:31:08;4.75;;;1.13;;
77864;SDS011;67061;48.524;9.040;2024-02-15T12:33:38;3.92;;;1.17;;
77864;SDS011;67061;48.524;9.040;2024-02-15T12:36:07;3.05;;;1.00;;
77864;SDS011;67061;48.524;9.040;2024-02-15T12:38:35;3.55;;;1.00;;
77864;SDS011;67061;48.524;9.040;2024-02-15T12:41:03;2.22;;;0.90;;
77864;SDS011;67061;48.524;9.040;2024-02-15T12:43:43;3.22;;;1.17;;
77864;SDS011;67061;48.524;9.040;2024-02-15T12:46:10;2.58;;;1.13;;
77864;SDS011;67061;48.524;9.040;2024-02-15T12:48:38;4.32;;;1.02;;
77864;SDS011;67061;48.524;9.040;2024-02-15T12:51:14;3.50;;;1.00;;
77864;SDS011;67061;48.524;9.040;2024-02-15T12:53:41;3.95;;;1.13;;
77864;SDS011;67061;48.524;9.040;2024-02-15T12:56:08;2.90;;;0.90;;
77864;SDS011;67061;48.524;9.040;2024-02-15T12:58:36;3.45;;;0.73;;
77864;SDS011;67061;48.524;9.040;2024-02-15T13:01:04;2.17;;;0.90;;
77864;SDS011;67061;48.524;9.040;2024-02-15T13:03:31;2.60;;;1.00;;
77864;SDS011;67061;48.524;9.040;2024-02-15T13:05:58;2.20;;;0.93;;
77864;SDS011;67061;48.524;9.040;2024-02-15T13:08:27;3.85;;;0.93;;
77864;SDS011;67061;48.524;9.040;2024-02-15T13:10:54;2.53;;;1.10;;
77864;SDS011;67061;48.524;9.040;2024-02-15T13:13:21;3.15;;;1.00;;
77864;SDS011;67061;48.524;9.040;2024-02-15T13:15:48;4.50;;;1.00;;
77864;SDS011;67061;48.524;9.040;2024-02-15T13:18:16;3.25;;;1.00;;
77864;SDS011;67061;48.524;9.040;2024-02-15T13:20:43;3.55;;;0.90;;
77864;SDS011;67061;48.524;9.040;2024-02-15T13:23:14;3.10;;;1.10;;
77864;SDS011;67061;48.524;9.040;2024-02-15T13:25:48;3.88;;;0.93;;
77864;SDS011;67061;48.524;9.040;2024-02-15T13:28:17;2.65;;;0.95;;
77864;SDS011;67061;48.524;9.040;2024-02-15T13:30:44;2.95;;;1.13;;
77864;SDS011;67061;48.524;9.040;2024-02-15T13:33:11;3.80;;;1.15;;
77864;SDS011;67061;48.524;9.040;2024-02-15T13:35:38;2.95;;;1.30;;
77864;SDS011;67061;48.524;9.040;2024-02-15T13:38:06;3.47;;;1.10;;
77864;SDS011;67061;48.524;9.040;2024-02-15T13:40:39;3.55;;;1.10;;
77864;SDS011;67061;48.524;9.040;2024-02-15T13:43:08;3.03;;;0.90;;
77864;SDS011;67061;48.524;9.040;2024-02-15T13:45:38;3.42;;;0.85;;
77864;SDS011;67061;48.524;9.040;2024-02-15T13:48:06;3.53;;;0.95;;
77864;SDS011;67061;48.524;9.040;2024-02-15T13:50:34;3.88;;;1.10;;
77864;SDS011;67061;48.524;9.040;2024-02-15T13:53:01;4.63;;;1.30;;
77864;SDS011;67061;48.524;9.040;2024-02-15T13:55:30;3.58;;;1.08;;
77864;SDS011;67061;48.524;9.040;2024-02-15T13:57:57;3.15;;;1.42;;
77864;SDS011;67061;48.524;9.040;2024-02-15T14:00:26;6.18;;;1.10;;
77864;SDS011;67061;48.524;9.040;2024-02-15T14:02:58;2.67;;;1.10;;
77864;SDS011;67061;48.524;9.040;2024-02-15T14:05:27;2.80;;;1.02;;
77864;SDS011;67061;48.524;9.040;2024-02-15T14:10:23;3.58;;;1.25;;
77864;SDS011;67061;48.524;9.040;2024-02-15T14:12:52;2.50;;;1.20;;
77864;SDS011;67061;48.524;9.040;2024-02-15T14:15:23;5.07;;;1.10;;
77864;SDS011;67061;48.524;9.040;2024-02-15T14:17:53;4.72;;;1.15;;
77864;SDS011;67061;48.524;9.040;2024-02-15T14:20:21;5.05;;;1.25;;
77864;SDS011;67061;48.524;9.040;2024-02-15T14:22:49;7.90;;;1.40;;
77864;SDS011;67061;48.524;9.040;2024-02-15T14:25:21;3.70;;;0.90;;
77864;SDS011;67061;48.524;9.040;2024-02-15T14:27:48;5.25;;;1.40;;
77864;SDS011;67061;48.524;9.040;2024-02-15T14:30:15;3.55;;;1.60;;
77864;SDS011;67061;48.524;9.040;2024-02-15T14:33:01;3.35;;;1.20;;
77864;SDS011;67061;48.524;9.040;2024-02-15T14:35:32;5.25;;;1.15;;
77864;SDS011;67061;48.524;9.040;2024-02-15T14:38:01;5.65;;;1.30;;
77864;SDS011;67061;48.524;9.040;2024-02-15T14:40:32;2.92;;;1.50;;
77864;SDS011;67061;48.524;9.040;2024-02-15T14:42:59;6.32;;;1.75;;
77864;SDS011;67061;48.524;9.040;2024-02-15T14:45:27;4.72;;;1.13;;
77864;SDS011;67061;48.524;9.040;2024-02-15T14:47:54;3.50;;;1.25;;
77864;SDS011;67061;48.524;9.040;2024-02-15T14:50:22;5.55;;;1.77;;
77864;SDS011;67061;48.524;9.040;2024-02-15T14:52:50;2.30;;;1.05;;
77864;SDS011;67061;48.524;9.040;2024-02-15T14:55:18;4.70;;;1.40;;
77864;SDS011;67061;48.524;9.040;2024-02-15T14:57:45;5.43;;;1.17;;
77864;SDS011;67061;48.524;9.040;2024-02-15T15:00:13;3.70;;;1.17;;
77864;SDS011;67061;48.524;9.040;2024-02-15T15:02:42;3.25;;;1.42;;
77864;SDS011;67061;48.524;9.040;2024-02-15T15:05:13;6.10;;;1.25;;
77864;SDS011;67061;48.524;9.040;2024-02-15T15:07:59;4.72;;;1.80;;
77864;SDS011;67061;48.524;9.040;2024-02-15T15:10:44;6.15;;;1.95;;
77864;SDS011;67061;48.524;9.040;2024-02-15T15:13:29;4.78;;;1.55;;